sensor_id;sensor_type;location;lat;lon;timestamp;P1;durP1;ratioP1;P2;durP2;ratioP2
4585;SDS011;2305;50.118;8.952;2024-01-07T00:00:18;3.40;;;2.13;;
4585;SDS011;2305;50.118;8.952;2024-01-07T00:02:47;3.77;;;2.07;;
4585;SDS011;2305;50.118;8.952;2024-01-07T00:05:16;3.57;;;2.17;;
4585;SDS011;2305;50.118;8.952;2024-01-07T00:07:52;2.30;;;1.73;;
4585;SDS011;2305;50.118;8.952;2024-01-07T00:10:20;2.27;;;1.87;;
4585;SDS011;2305;50.118;8.952;2024-01-07T00:12:48;2.50;;;2.00;;
4585;SDS011;2305;50.118;8.952;2024-01-07T00:15:20;6.17;;;1.80;;
4585;SDS011;2305;50.118;8.952;2024-01-07T00:17:49;3.67;;;2.43;;
4585;SDS011;2305;50.118;8.952;2024-01-07T00:20:21;2.70;;;2.20;;
4585;SDS011;2305;50.118;8.952;2024-01-07T00:22:49;3.53;;;2.63;;
4585;SDS011;2305;50.118;8.952;2024-01-07T00:25:18;3.90;;;2.57;;
4585;SDS011;2305;50.118;8.952;2024-01-07T00:27:47;2.50;;;2.30;;
4585;SDS011;2305;50.118;8.952;2024-01-07T00:30:18;3.93;;;2.37;;
4585;SDS011;2305;50.118;8.952;2024-01-07T00:32:51;3.30;;;2.00;;
4585;SDS011;2305;50.118;8.952;2024-01-07T00:35:20;2.60;;;2.10;;
4585;SDS011;2305;50.118;8.952;2024-01-07T00:37:50;2.80;;;2.30;;
4585;SDS011;2305;50.118;8.952;2024-01-07T00:40:19;2.40;;;1.80;;
4585;SDS011;2305;50.118;8.952;2024-01-07T00:42:47;2.83;;;2.00;;
4585;SDS011;2305;50.118;8.952;2024-01-07T00:45:15;3.10;;;2.10;;
4585;SDS011;2305;50.118;8.952;2024-01-07T00:47:45;2.80;;;1.93;;
4585;SDS011;2305;50.118;8.952;2024-01-07T00:50:14;2.57;;;1.80;;
4585;SDS011;2305;50.118;8.952;2024-01-07T00:52:42;2.40;;;2.03;;
4585;SDS011;2305;50.118;8.952;2024-01-07T00:55:12;2.93;;;2.07;;
4585;SDS011;2305;50.118;8.952;2024-01-07T00:57:41;3.00;;;1.93;;
4585;SDS011;2305;50.118;8.952;2024-01-07T01:00:09;4.40;;;2.07;;
4585;SDS011;2305;50.118;8.952;2024-01-07T01:02:38;4.20;;;1.90;;
4585;SDS011;2305;50.118;8.952;2024-01-07T01:05:08;2.80;;;1.90;;
4585;SDS011;2305;50.118;8.952;2024-01-07T01:07:37;4.27;;;2.00;;
4585;SDS011;2305;50.118;8.952;2024-01-07T01:10:09;3.20;;;2.30;;
4585;SDS011;2305;50.118;8.952;2024-01-07T01:12:40;2.87;;;1.90;;
4585;SDS011;2305;50.118;8.952;2024-01-07T01:15:12;2.50;;;1.77;;
4585;SDS011;2305;50.118;8.952;2024-01-07T01:17:48;6.43;;;1.87;;
4585;SDS011;2305;50.118;8.952;2024-01-07T01:20:20;1.93;;;1.53;;
4585;SDS011;2305;50.118;8.952;2024-01-07T01:22:49;2.40;;;1.70;;
4585;SDS011;2305;50.118;8.952;2024-01-07T01:25:25;2.40;;;1.70;;
4585;SDS011;2305;50.118;8.952;2024-01-07T01:27:55;3.17;;;2.13;;
4585;SDS011;2305;50.118;8.952;2024-01-07T01:30:25;2.40;;;1.70;;
4585;SDS011;2305;50.118;8.952;2024-01-07T01:33:00;3.40;;;2.10;;
4585;SDS011;2305;50.118;8.952;2024-01-07T01:35:32;2.23;;;1.53;;
4585;SDS011;2305;50.118;8.952;2024-01-07T01:38:00;2.10;;;1.50;;
4585;SDS011;2305;50.118;8.952;2024-01-07T01:40:28;4.13;;;1.80;;
4585;SDS011;2305;50.118;8.952;2024-01-07T01:42:59;2.63;;;1.83;;
4585;SDS011;2305;50.118;8.952;2024-01-07T01:45:27;2.10;;;1.57;;
4585;SDS011;2305;50.118;8.952;2024-01-07T01:47:55;2.20;;;1.40;;
4585;SDS011;2305;50.118;8.952;2024-01-07T01:50:23;2.33;;;1.87;;
4585;SDS011;2305;50.118;8.952;2024-01-07T01:52:53;2.73;;;1.77;;
4585;SDS011;2305;50.118;8.952;2024-01-07T01:55:22;2.90;;;1.83;;
4585;SDS011;2305;50.118;8.952;2024-01-07T01:57:51;3.03;;;1.93;;
4585;SDS011;2305;50.118;8.952;2024-01-07T02:00:21;2.73;;;1.73;;
4585;SDS011;2305;50.118;8.952;2024-01-07T02:02:49;2.90;;;1.97;;
4585;SDS011;2305;50.118;8.952;2024-01-07T02:05:17;3.00;;;1.70;;
4585;SDS011;2305;50.118;8.952;2024-01-07T02:07:46;2.47;;;1.90;;
4585;SDS011;2305;50.118;8.952;2024-01-07T02:10:15;4.00;;;2.30;;
4585;SDS011;2305;50.118;8.952;2024-01-07T02:12:43;5.00;;;2.23;;
4585;SDS011;2305;50.118;8.952;2024-01-07T02:15:11;3.30;;;2.10;;
4585;SDS011;2305;50.118;8.952;2024-01-07T02:17:39;2.40;;;1.60;;
4585;SDS011;2305;50.118;8.952;2024-01-07T02:20:08;2.67;;;2.20;;
4585;SDS011;2305;50.118;8.952;2024-01-07T02:22:36;2.20;;;1.60;;
4585;SDS011;2305;50.118;8.952;2024-01-07T02:25:09;3.33;;;2.40;;
4585;SDS011;2305;50.118;8.952;2024-01-07T02:27:37;3.30;;;2.20;;
4585;SDS011;2305;50.118;8.952;2024-01-07T02:30:06;4.10;;;2.33;;
4585;SDS011;2305;50.118;8.952;2024-01-07T02:32:38;2.03;;;1.70;;
4585;SDS011;2305;50.118;8.952;2024-01-07T02:35:08;5.67;;;1.90;;
4585;SDS011;2305;50.118;8.952;2024-01-07T02:37:36;3.10;;;2.33;;
4585;SDS011;2305;50.118;8.952;2024-01-07T02:40:04;3.10;;;2.17;;
4585;SDS011;2305;50.118;8.952;2024-01-07T02:42:35;3.73;;;2.77;;
4585;SDS011;2305;50.118;8.952;2024-01-07T02:45:05;2.27;;;1.87;;
4585;SDS011;2305;50.118;8.952;2024-01-07T02:47:33;3.50;;;2.20;;
4585;SDS011;2305;50.118;8.952;2024-01-07T02:50:03;3.30;;;1.93;;
4585;SDS011;2305;50.118;8.952;2024-01-07T02:52:32;2.87;;;2.37;;
4585;SDS011;2305;50.118;8.952;2024-01-07T02:55:00;4.20;;;2.40;;
4585;SDS011;2305;50.118;8.952;2024-01-07T02:57:31;3.90;;;2.47;;
4585;SDS011;2305;50.118;8.952;2024-01-07T02:59:59;3.40;;;2.17;;
4585;SDS011;2305;50.118;8.952;2024-01-07T03:02:27;3.10;;;2.30;;
4585;SDS011;2305;50.118;8.952;2024-01-07T03:04:57;3.63;;;2.67;;
4585;SDS011;2305;50.118;8.952;2024-01-07T03:07:27;5.67;;;3.00;;
4585;SDS011;2305;50.118;8.952;2024-01-07T03:09:55;2.83;;;2.10;;
4585;SDS011;2305;50.118;8.952;2024-01-07T03:12:25;3.53;;;2.40;;
4585;SDS011;2305;50.118;8.952;2024-01-07T03:14:58;3.27;;;2.27;;
4585;SDS011;2305;50.118;8.952;2024-01-07T03:17:26;3.83;;;2.40;;
4585;SDS011;2305;50.118;8.952;2024-01-07T03:19:54;3.10;;;2.37;;
4585;SDS011;2305;50.118;8.952;2024-01-07T03:22:23;5.90;;;2.53;;
4585;SDS011;2305;50.118;8.952;2024-01-07T03:24:51;2.77;;;1.97;;
4585;SDS011;2305;50.118;8.952;2024-01-07T03:27:19;4.03;;;2.60;;
4585;SDS011;2305;50.118;8.952;2024-01-07T03:29:47;4.90;;;2.60;;
4585;SDS011;2305;50.118;8.952;2024-01-07T03:32:17;5.20;;;2.93;;
4585;SDS011;2305;50.118;8.952;2024-01-07T03:34:45;5.40;;;2.70;;
4585;SDS011;2305;50.118;8.952;2024-01-07T03:37:13;3.73;;;2.80;;
4585;SDS011;2305;50.118;8.952;2024-01-07T03:39:41;5.10;;;3.23;;
4585;SDS011;2305;50.118;8.952;2024-01-07T03:42:10;5.70;;;2.80;;
4585;SDS011;2305;50.118;8.952;2024-01-07T03:44:38;3.40;;;2.63;;
4585;SDS011;2305;50.118;8.952;2024-01-07T03:47:06;3.17;;;2.50;;
4585;SDS011;2305;50.118;8.952;2024-01-07T03:49:37;5.70;;;3.57;;
4585;SDS011;2305;50.118;8.952;2024-01-07T03:52:06;5.63;;;3.47;;
4585;SDS011;2305;50.118;8.952;2024-01-07T03:54:34;5.33;;;3.23;;
4585;SDS011;2305;50.118;8.952;2024-01-07T03:57:04;5.50;;;3.47;;
4585;SDS011;2305;50.118;8.952;2024-01-07T03:59:32;6.50;;;4.00;;
4585;SDS011;2305;50.118;8.952;2024-01-07T04:02:00;5.20;;;3.40;;
4585;SDS011;2305;50.118;8.952;2024-01-07T04:04:28;7.53;;;4.00;;
4585;SDS011;2305;50.118;8.952;2024-01-07T04:06:58;5.20;;;3.40;;
4585;SDS011;2305;50.118;8.952;2024-01-07T04:09:26;9.83;;;3.63;;
4585;SDS011;2305;50.118;8.952;2024-01-07T04:11:55;7.93;;;4.27;;
4585;SDS011;2305;50.118;8.952;2024-01-07T04:14:23;6.00;;;3.43;;
4585;SDS011;2305;50.118;8.952;2024-01-07T04:16:54;9.03;;;4.20;;
4585;SDS011;2305;50.118;8.952;2024-01-07T04:19:24;5.60;;;3.43;;
4585;SDS011;2305;50.118;8.952;2024-01-07T04:21:54;5.53;;;3.83;;
4585;SDS011;2305;50.118;8.952;2024-01-07T04:24:25;6.23;;;3.23;;
4585;SDS011;2305;50.118;8.952;2024-01-07T04:26:57;6.53;;;4.13;;
4585;SDS011;2305;50.118;8.952;2024-01-07T04:29:25;5.53;;;3.67;;
4585;SDS011;2305;50.118;8.952;2024-01-07T04:31:53;7.17;;;4.30;;
4585;SDS011;2305;50.118;8.952;2024-01-07T04:34:21;6.40;;;4.10;;
4585;SDS011;2305;50.118;8.952;2024-01-07T04:36:49;8.97;;;5.20;;
4585;SDS011;2305;50.118;8.952;2024-01-07T04:39:17;7.03;;;3.57;;
4585;SDS011;2305;50.118;8.952;2024-01-07T04:41:46;6.47;;;4.03;;
4585;SDS011;2305;50.118;8.952;2024-01-07T04:44:14;6.33;;;4.30;;
4585;SDS011;2305;50.118;8.952;2024-01-07T04:46:42;6.00;;;4.00;;
4585;SDS011;2305;50.118;8.952;2024-01-07T04:49:12;5.67;;;3.70;;
4585;SDS011;2305;50.118;8.952;2024-01-07T04:51:40;5.80;;;4.37;;
4585;SDS011;2305;50.118;8.952;2024-01-07T04:54:09;5.17;;;3.60;;
4585;SDS011;2305;50.118;8.952;2024-01-07T04:56:40;7.03;;;4.17;;
4585;SDS011;2305;50.118;8.952;2024-01-07T04:59:10;8.10;;;4.10;;
4585;SDS011;2305;50.118;8.952;2024-01-07T05:01:38;6.33;;;3.77;;
4585;SDS011;2305;50.118;8.952;2024-01-07T05:04:06;8.40;;;5.00;;
4585;SDS011;2305;50.118;8.952;2024-01-07T05:06:36;6.20;;;3.90;;
4585;SDS011;2305;50.118;8.952;2024-01-07T05:09:03;6.57;;;4.03;;
4585;SDS011;2305;50.118;8.952;2024-01-07T05:11:31;6.33;;;3.93;;
4585;SDS011;2305;50.118;8.952;2024-01-07T05:14:00;8.80;;;5.63;;
4585;SDS011;2305;50.118;8.952;2024-01-07T05:16:30;7.20;;;4.43;;
4585;SDS011;2305;50.118;8.952;2024-01-07T05:18:58;10.03;;;4.43;;
4585;SDS011;2305;50.118;8.952;2024-01-07T05:21:26;9.63;;;4.87;;
4585;SDS011;2305;50.118;8.952;2024-01-07T05:23:55;9.47;;;6.07;;
4585;SDS011;2305;50.118;8.952;2024-01-07T05:26:23;7.80;;;4.93;;
4585;SDS011;2305;50.118;8.952;2024-01-07T05:28:54;7.07;;;4.60;;
4585;SDS011;2305;50.118;8.952;2024-01-07T05:31:21;8.87;;;5.53;;
4585;SDS011;2305;50.118;8.952;2024-01-07T05:33:51;9.87;;;5.60;;
4585;SDS011;2305;50.118;8.952;2024-01-07T05:36:20;9.67;;;5.23;;
4585;SDS011;2305;50.118;8.952;2024-01-07T05:38:50;8.10;;;5.10;;
4585;SDS011;2305;50.118;8.952;2024-01-07T05:41:18;6.60;;;4.60;;
4585;SDS011;2305;50.118;8.952;2024-01-07T05:43:46;6.30;;;4.77;;
4585;SDS011;2305;50.118;8.952;2024-01-07T05:46:14;9.00;;;5.13;;
4585;SDS011;2305;50.118;8.952;2024-01-07T05:48:43;9.30;;;5.20;;
4585;SDS011;2305;50.118;8.952;2024-01-07T05:51:14;8.17;;;4.33;;
4585;SDS011;2305;50.118;8.952;2024-01-07T05:53:43;10.40;;;5.40;;
4585;SDS011;2305;50.118;8.952;2024-01-07T05:56:12;8.97;;;5.70;;
4585;SDS011;2305;50.118;8.952;2024-01-07T05:58:40;10.27;;;5.93;;
4585;SDS011;2305;50.118;8.952;2024-01-07T06:01:08;9.77;;;5.60;;
4585;SDS011;2305;50.118;8.952;2024-01-07T06:03:36;8.93;;;5.00;;
4585;SDS011;2305;50.118;8.952;2024-01-07T06:06:06;12.63;;;5.73;;
4585;SDS011;2305;50.118;8.952;2024-01-07T06:08:36;9.97;;;5.47;;
4585;SDS011;2305;50.118;8.952;2024-01-07T06:11:04;12.00;;;5.70;;
4585;SDS011;2305;50.118;8.952;2024-01-07T06:13:32;10.87;;;5.67;;
4585;SDS011;2305;50.118;8.952;2024-01-07T06:16:02;7.57;;;5.33;;
4585;SDS011;2305;50.118;8.952;2024-01-07T06:18:31;8.80;;;5.10;;
4585;SDS011;2305;50.118;8.952;2024-01-07T06:21:04;10.67;;;5.60;;
4585;SDS011;2305;50.118;8.952;2024-01-07T06:23:33;9.10;;;4.50;;
4585;SDS011;2305;50.118;8.952;2024-01-07T06:26:04;8.23;;;5.23;;
4585;SDS011;2305;50.118;8.952;2024-01-07T06:28:35;6.77;;;4.67;;
4585;SDS011;2305;50.118;8.952;2024-01-07T06:31:03;10.33;;;5.13;;
4585;SDS011;2305;50.118;8.952;2024-01-07T06:33:32;6.90;;;4.17;;
4585;SDS011;2305;50.118;8.952;2024-01-07T06:36:00;5.90;;;3.73;;
4585;SDS011;2305;50.118;8.952;2024-01-07T06:38:30;9.33;;;5.30;;
4585;SDS011;2305;50.118;8.952;2024-01-07T06:40:58;10.60;;;4.37;;
4585;SDS011;2305;50.118;8.952;2024-01-07T06:43:32;8.63;;;4.63;;
4585;SDS011;2305;50.118;8.952;2024-01-07T06:45:59;9.87;;;4.73;;
4585;SDS011;2305;50.118;8.952;2024-01-07T06:48:33;6.57;;;4.73;;
4585;SDS011;2305;50.118;8.952;2024-01-07T06:51:01;9.83;;;5.40;;
4585;SDS011;2305;50.118;8.952;2024-01-07T06:53:29;7.67;;;5.30;;
4585;SDS011;2305;50.118;8.952;2024-01-07T06:55:57;5.50;;;3.87;;
4585;SDS011;2305;50.118;8.952;2024-01-07T06:58:26;7.83;;;4.60;;
4585;SDS011;2305;50.118;8.952;2024-01-07T07:00:55;5.80;;;4.30;;
4585;SDS011;2305;50.118;8.952;2024-01-07T07:03:23;8.30;;;4.80;;
4585;SDS011;2305;50.118;8.952;2024-01-07T07:05:52;9.27;;;4.60;;
4585;SDS011;2305;50.118;8.952;2024-01-07T07:08:20;7.33;;;4.10;;
4585;SDS011;2305;50.118;8.952;2024-01-07T07:10:48;7.93;;;5.07;;
4585;SDS011;2305;50.118;8.952;2024-01-07T07:13:16;8.80;;;4.90;;
4585;SDS011;2305;50.118;8.952;2024-01-07T07:15:44;9.40;;;5.03;;
4585;SDS011;2305;50.118;8.952;2024-01-07T07:18:13;8.47;;;4.77;;
4585;SDS011;2305;50.118;8.952;2024-01-07T07:20:42;7.60;;;4.80;;
4585;SDS011;2305;50.118;8.952;2024-01-07T07:23:10;6.73;;;4.77;;
4585;SDS011;2305;50.118;8.952;2024-01-07T07:25:38;7.57;;;4.70;;
4585;SDS011;2305;50.118;8.952;2024-01-07T07:28:06;9.67;;;4.80;;
4585;SDS011;2305;50.118;8.952;2024-01-07T07:30:34;9.77;;;5.00;;
4585;SDS011;2305;50.118;8.952;2024-01-07T07:33:02;13.63;;;5.37;;
4585;SDS011;2305;50.118;8.952;2024-01-07T07:35:32;9.10;;;5.10;;
4585;SDS011;2305;50.118;8.952;2024-01-07T07:37:59;7.83;;;4.97;;
4585;SDS011;2305;50.118;8.952;2024-01-07T07:40:27;7.43;;;4.73;;
4585;SDS011;2305;50.118;8.952;2024-01-07T07:42:55;8.43;;;4.60;;
4585;SDS011;2305;50.118;8.952;2024-01-07T07:45:26;8.37;;;5.10;;
4585;SDS011;2305;50.118;8.952;2024-01-07T07:47:55;7.77;;;4.30;;
4585;SDS011;2305;50.118;8.952;2024-01-07T07:50:23;5.70;;;3.90;;
4585;SDS011;2305;50.118;8.952;2024-01-07T07:52:52;7.90;;;4.63;;
4585;SDS011;2305;50.118;8.952;2024-01-07T07:55:20;7.67;;;4.97;;
4585;SDS011;2305;50.118;8.952;2024-01-07T07:57:49;7.63;;;4.97;;
4585;SDS011;2305;50.118;8.952;2024-01-07T08:00:18;8.13;;;3.77;;
4585;SDS011;2305;50.118;8.952;2024-01-07T08:02:47;9.30;;;4.83;;
4585;SDS011;2305;50.118;8.952;2024-01-07T08:05:15;6.97;;;4.07;;
4585;SDS011;2305;50.118;8.952;2024-01-07T08:07:43;5.83;;;4.10;;
4585;SDS011;2305;50.118;8.952;2024-01-07T08:10:15;5.97;;;4.00;;
4585;SDS011;2305;50.118;8.952;2024-01-07T08:12:43;7.37;;;4.07;;
4585;SDS011;2305;50.118;8.952;2024-01-07T08:15:11;5.60;;;3.57;;
4585;SDS011;2305;50.118;8.952;2024-01-07T08:17:43;6.70;;;4.27;;
4585;SDS011;2305;50.118;8.952;2024-01-07T08:20:14;5.57;;;3.77;;
4585;SDS011;2305;50.118;8.952;2024-01-07T08:22:42;6.50;;;3.53;;
4585;SDS011;2305;50.118;8.952;2024-01-07T08:25:12;5.07;;;3.50;;
4585;SDS011;2305;50.118;8.952;2024-01-07T08:27:42;6.80;;;4.87;;
4585;SDS011;2305;50.118;8.952;2024-01-07T08:30:11;5.20;;;3.60;;
4585;SDS011;2305;50.118;8.952;2024-01-07T08:32:42;4.50;;;3.10;;
4585;SDS011;2305;50.118;8.952;2024-01-07T08:35:10;5.40;;;3.40;;
4585;SDS011;2305;50.118;8.952;2024-01-07T08:37:45;4.90;;;3.10;;
4585;SDS011;2305;50.118;8.952;2024-01-07T08:40:14;4.63;;;3.30;;
4585;SDS011;2305;50.118;8.952;2024-01-07T08:42:45;6.37;;;3.63;;
4585;SDS011;2305;50.118;8.952;2024-01-07T08:45:15;4.23;;;3.10;;
4585;SDS011;2305;50.118;8.952;2024-01-07T08:47:45;4.10;;;3.20;;
4585;SDS011;2305;50.118;8.952;2024-01-07T08:50:18;4.43;;;3.10;;
4585;SDS011;2305;50.118;8.952;2024-01-07T08:52:46;7.20;;;3.40;;
4585;SDS011;2305;50.118;8.952;2024-01-07T08:55:16;6.57;;;3.50;;
4585;SDS011;2305;50.118;8.952;2024-01-07T08:57:44;5.40;;;3.33;;
4585;SDS011;2305;50.118;8.952;2024-01-07T09:00:16;5.90;;;3.60;;
4585;SDS011;2305;50.118;8.952;2024-01-07T09:02:44;4.00;;;3.40;;
4585;SDS011;2305;50.118;8.952;2024-01-07T09:05:12;5.07;;;3.53;;
4585;SDS011;2305;50.118;8.952;2024-01-07T09:07:40;6.47;;;4.07;;
4585;SDS011;2305;50.118;8.952;2024-01-07T09:10:10;3.80;;;3.00;;
4585;SDS011;2305;50.118;8.952;2024-01-07T09:12:41;6.10;;;3.87;;
4585;SDS011;2305;50.118;8.952;2024-01-07T09:15:11;4.37;;;3.10;;
4585;SDS011;2305;50.118;8.952;2024-01-07T09:17:41;5.00;;;3.73;;
4585;SDS011;2305;50.118;8.952;2024-01-07T09:20:10;5.40;;;4.00;;
4585;SDS011;2305;50.118;8.952;2024-01-07T09:22:38;4.47;;;2.90;;
4585;SDS011;2305;50.118;8.952;2024-01-07T09:25:09;5.70;;;3.53;;
4585;SDS011;2305;50.118;8.952;2024-01-07T09:27:41;6.07;;;4.13;;
4585;SDS011;2305;50.118;8.952;2024-01-07T09:30:10;7.97;;;4.33;;
4585;SDS011;2305;50.118;8.952;2024-01-07T09:32:43;6.30;;;3.80;;
4585;SDS011;2305;50.118;8.952;2024-01-07T09:35:11;5.13;;;3.50;;
4585;SDS011;2305;50.118;8.952;2024-01-07T09:37:40;5.40;;;4.10;;
4585;SDS011;2305;50.118;8.952;2024-01-07T09:40:09;4.33;;;3.40;;
4585;SDS011;2305;50.118;8.952;2024-01-07T09:42:42;4.70;;;3.33;;
4585;SDS011;2305;50.118;8.952;2024-01-07T09:45:11;7.57;;;4.17;;
4585;SDS011;2305;50.118;8.952;2024-01-07T09:47:42;6.70;;;4.20;;
4585;SDS011;2305;50.118;8.952;2024-01-07T09:50:13;6.33;;;4.00;;
4585;SDS011;2305;50.118;8.952;2024-01-07T09:52:44;8.83;;;4.80;;
4585;SDS011;2305;50.118;8.952;2024-01-07T09:55:16;7.17;;;4.60;;
4585;SDS011;2305;50.118;8.952;2024-01-07T09:57:51;5.83;;;3.83;;
4585;SDS011;2305;50.118;8.952;2024-01-07T10:00:20;7.37;;;3.90;;
4585;SDS011;2305;50.118;8.952;2024-01-07T10:02:49;8.30;;;3.97;;
4585;SDS011;2305;50.118;8.952;2024-01-07T10:05:18;7.47;;;4.77;;
4585;SDS011;2305;50.118;8.952;2024-01-07T10:07:47;6.33;;;3.77;;
4585;SDS011;2305;50.118;8.952;2024-01-07T10:10:16;7.17;;;4.53;;
4585;SDS011;2305;50.118;8.952;2024-01-07T10:12:45;6.67;;;4.57;;
4585;SDS011;2305;50.118;8.952;2024-01-07T10:15:17;8.10;;;4.57;;
4585;SDS011;2305;50.118;8.952;2024-01-07T10:17:48;7.63;;;5.00;;
4585;SDS011;2305;50.118;8.952;2024-01-07T10:20:16;6.47;;;4.50;;
4585;SDS011;2305;50.118;8.952;2024-01-07T10:22:46;7.03;;;4.53;;
4585;SDS011;2305;50.118;8.952;2024-01-07T10:25:15;5.80;;;3.97;;
4585;SDS011;2305;50.118;8.952;2024-01-07T10:27:45;6.20;;;4.57;;
4585;SDS011;2305;50.118;8.952;2024-01-07T10:30:15;9.10;;;5.10;;
4585;SDS011;2305;50.118;8.952;2024-01-07T10:32:45;8.10;;;4.77;;
4585;SDS011;2305;50.118;8.952;2024-01-07T10:35:15;8.00;;;4.00;;
4585;SDS011;2305;50.118;8.952;2024-01-07T10:37:49;6.70;;;4.23;;
4585;SDS011;2305;50.118;8.952;2024-01-07T10:40:17;6.80;;;4.00;;
4585;SDS011;2305;50.118;8.952;2024-01-07T10:42:45;9.43;;;4.50;;
4585;SDS011;2305;50.118;8.952;2024-01-07T10:45:18;5.37;;;3.30;;
4585;SDS011;2305;50.118;8.952;2024-01-07T10:47:50;7.33;;;3.67;;
4585;SDS011;2305;50.118;8.952;2024-01-07T10:50:22;5.60;;;3.60;;
4585;SDS011;2305;50.118;8.952;2024-01-07T10:52:55;6.97;;;4.40;;
4585;SDS011;2305;50.118;8.952;2024-01-07T10:55:33;8.03;;;3.50;;
4585;SDS011;2305;50.118;8.952;2024-01-07T10:58:03;5.00;;;3.90;;
4585;SDS011;2305;50.118;8.952;2024-01-07T11:00:35;7.93;;;4.20;;
4585;SDS011;2305;50.118;8.952;2024-01-07T11:03:09;4.87;;;3.57;;
4585;SDS011;2305;50.118;8.952;2024-01-07T11:05:47;8.97;;;3.90;;
4585;SDS011;2305;50.118;8.952;2024-01-07T11:08:23;8.20;;;3.73;;
4585;SDS011;2305;50.118;8.952;2024-01-07T11:10:55;8.33;;;4.03;;
4585;SDS011;2305;50.118;8.952;2024-01-07T11:13:34;6.00;;;3.70;;
4585;SDS011;2305;50.118;8.952;2024-01-07T11:16:05;5.10;;;3.43;;
4585;SDS011;2305;50.118;8.952;2024-01-07T11:18:39;7.43;;;3.20;;
4585;SDS011;2305;50.118;8.952;2024-01-07T11:21:20;6.50;;;3.60;;
4585;SDS011;2305;50.118;8.952;2024-01-07T11:23:51;6.30;;;4.27;;
4585;SDS011;2305;50.118;8.952;2024-01-07T11:26:22;6.00;;;3.70;;
4585;SDS011;2305;50.118;8.952;2024-01-07T11:28:53;7.17;;;3.60;;
4585;SDS011;2305;50.118;8.952;2024-01-07T11:31:42;6.60;;;3.63;;
4585;SDS011;2305;50.118;8.952;2024-01-07T11:37:13;6.63;;;3.70;;
4585;SDS011;2305;50.118;8.952;2024-01-07T11:39:41;8.07;;;3.97;;
4585;SDS011;2305;50.118;8.952;2024-01-07T11:42:10;8.90;;;4.10;;
4585;SDS011;2305;50.118;8.952;2024-01-07T11:44:44;4.67;;;3.63;;
4585;SDS011;2305;50.118;8.952;2024-01-07T11:47:14;9.77;;;4.60;;
4585;SDS011;2305;50.118;8.952;2024-01-07T11:49:44;4.33;;;3.40;;
4585;SDS011;2305;50.118;8.952;2024-01-07T11:52:15;6.00;;;3.87;;
4585;SDS011;2305;50.118;8.952;2024-01-07T11:54:44;6.80;;;3.50;;
4585;SDS011;2305;50.118;8.952;2024-01-07T11:57:13;10.70;;;4.63;;
4585;SDS011;2305;50.118;8.952;2024-01-07T11:59:41;7.40;;;3.60;;
4585;SDS011;2305;50.118;8.952;2024-01-07T12:02:13;6.17;;;4.13;;
4585;SDS011;2305;50.118;8.952;2024-01-07T12:04:45;6.20;;;3.97;;
4585;SDS011;2305;50.118;8.952;2024-01-07T12:07:18;4.73;;;3.80;;
4585;SDS011;2305;50.118;8.952;2024-01-07T12:09:54;8.20;;;4.00;;
4585;SDS011;2305;50.118;8.952;2024-01-07T12:12:24;5.57;;;3.33;;
4585;SDS011;2305;50.118;8.952;2024-01-07T12:14:57;7.27;;;3.83;;
4585;SDS011;2305;50.118;8.952;2024-01-07T12:17:30;6.00;;;3.53;;
4585;SDS011;2305;50.118;8.952;2024-01-07T12:20:00;6.20;;;3.67;;
4585;SDS011;2305;50.118;8.952;2024-01-07T12:22:31;4.87;;;3.17;;
4585;SDS011;2305;50.118;8.952;2024-01-07T12:25:00;5.77;;;3.57;;
4585;SDS011;2305;50.118;8.952;2024-01-07T12:27:30;5.00;;;3.40;;
4585;SDS011;2305;50.118;8.952;2024-01-07T12:29:58;7.73;;;3.90;;
4585;SDS011;2305;50.118;8.952;2024-01-07T12:32:26;8.10;;;4.10;;
4585;SDS011;2305;50.118;8.952;2024-01-07T12:34:56;7.17;;;4.03;;
4585;SDS011;2305;50.118;8.952;2024-01-07T12:37:27;6.87;;;3.60;;
4585;SDS011;2305;50.118;8.952;2024-01-07T12:39:55;4.90;;;3.70;;
4585;SDS011;2305;50.118;8.952;2024-01-07T12:42:26;5.27;;;3.77;;
4585;SDS011;2305;50.118;8.952;2024-01-07T12:44:57;7.00;;;3.80;;
4585;SDS011;2305;50.118;8.952;2024-01-07T12:47:28;5.10;;;3.70;;
4585;SDS011;2305;50.118;8.952;2024-01-07T12:49:56;8.17;;;3.43;;
4585;SDS011;2305;50.118;8.952;2024-01-07T12:52:25;4.47;;;3.43;;
4585;SDS011;2305;50.118;8.952;2024-01-07T12:54:55;8.17;;;4.20;;
4585;SDS011;2305;50.118;8.952;2024-01-07T12:57:24;6.43;;;3.90;;
4585;SDS011;2305;50.118;8.952;2024-01-07T12:59:52;4.73;;;3.33;;
4585;SDS011;2305;50.118;8.952;2024-01-07T13:02:20;7.13;;;3.73;;
4585;SDS011;2305;50.118;8.952;2024-01-07T13:04:49;5.30;;;3.90;;
4585;SDS011;2305;50.118;8.952;2024-01-07T13:07:17;5.87;;;4.03;;
4585;SDS011;2305;50.118;8.952;2024-01-07T13:09:45;9.90;;;3.10;;
4585;SDS011;2305;50.118;8.952;2024-01-07T13:12:16;6.20;;;3.50;;
4585;SDS011;2305;50.118;8.952;2024-01-07T13:14:44;5.27;;;3.47;;
4585;SDS011;2305;50.118;8.952;2024-01-07T13:17:13;7.40;;;4.00;;
4585;SDS011;2305;50.118;8.952;2024-01-07T13:19:41;7.90;;;3.20;;
4585;SDS011;2305;50.118;8.952;2024-01-07T13:22:09;8.77;;;3.00;;
4585;SDS011;2305;50.118;8.952;2024-01-07T13:24:38;5.60;;;3.23;;
4585;SDS011;2305;50.118;8.952;2024-01-07T13:27:06;5.23;;;3.00;;
4585;SDS011;2305;50.118;8.952;2024-01-07T13:29:37;3.80;;;2.80;;
4585;SDS011;2305;50.118;8.952;2024-01-07T13:32:08;2.80;;;2.30;;
4585;SDS011;2305;50.118;8.952;2024-01-07T13:34:35;4.87;;;2.87;;
4585;SDS011;2305;50.118;8.952;2024-01-07T13:37:04;4.07;;;2.70;;
4585;SDS011;2305;50.118;8.952;2024-01-07T13:39:35;3.47;;;2.30;;
4585;SDS011;2305;50.118;8.952;2024-01-07T13:42:03;4.50;;;2.50;;
4585;SDS011;2305;50.118;8.952;2024-01-07T13:44:32;3.50;;;2.60;;
4585;SDS011;2305;50.118;8.952;2024-01-07T13:47:04;3.90;;;2.60;;
4585;SDS011;2305;50.118;8.952;2024-01-07T13:49:33;3.53;;;2.43;;
4585;SDS011;2305;50.118;8.952;2024-01-07T13:52:04;4.93;;;3.00;;
4585;SDS011;2305;50.118;8.952;2024-01-07T13:54:32;3.63;;;2.50;;
4585;SDS011;2305;50.118;8.952;2024-01-07T13:57:01;5.53;;;2.50;;
4585;SDS011;2305;50.118;8.952;2024-01-07T13:59:29;3.73;;;2.77;;
4585;SDS011;2305;50.118;8.952;2024-01-07T14:01:57;3.37;;;2.50;;
4585;SDS011;2305;50.118;8.952;2024-01-07T14:04:30;2.70;;;2.10;;
4585;SDS011;2305;50.118;8.952;2024-01-07T14:06:58;2.00;;;1.67;;
4585;SDS011;2305;50.118;8.952;2024-01-07T14:09:30;6.47;;;2.00;;
4585;SDS011;2305;50.118;8.952;2024-01-07T14:11:58;3.13;;;2.17;;
4585;SDS011;2305;50.118;8.952;2024-01-07T14:14:29;3.23;;;2.00;;
4585;SDS011;2305;50.118;8.952;2024-01-07T14:17:02;3.20;;;2.00;;
4585;SDS011;2305;50.118;8.952;2024-01-07T14:19:31;3.03;;;2.10;;
4585;SDS011;2305;50.118;8.952;2024-01-07T14:22:03;6.43;;;2.23;;
4585;SDS011;2305;50.118;8.952;2024-01-07T14:24:31;1.80;;;1.53;;
4585;SDS011;2305;50.118;8.952;2024-01-07T14:27:02;3.20;;;1.80;;
4585;SDS011;2305;50.118;8.952;2024-01-07T14:29:30;2.60;;;1.90;;
4585;SDS011;2305;50.118;8.952;2024-01-07T14:31:58;3.00;;;1.80;;
4585;SDS011;2305;50.118;8.952;2024-01-07T14:34:32;1.87;;;1.60;;
4585;SDS011;2305;50.118;8.952;2024-01-07T14:37:01;3.10;;;1.87;;
4585;SDS011;2305;50.118;8.952;2024-01-07T14:39:29;2.60;;;1.60;;
4585;SDS011;2305;50.118;8.952;2024-01-07T14:41:58;3.53;;;2.00;;
4585;SDS011;2305;50.118;8.952;2024-01-07T14:44:26;1.97;;;1.60;;
4585;SDS011;2305;50.118;8.952;2024-01-07T14:47:10;1.83;;;1.57;;
4585;SDS011;2305;50.118;8.952;2024-01-07T14:49:39;2.37;;;1.67;;
4585;SDS011;2305;50.118;8.952;2024-01-07T14:52:12;2.13;;;1.60;;
4585;SDS011;2305;50.118;8.952;2024-01-07T14:54:41;1.80;;;1.60;;
4585;SDS011;2305;50.118;8.952;2024-01-07T14:57:10;3.10;;;1.60;;
4585;SDS011;2305;50.118;8.952;2024-01-07T14:59:38;1.70;;;1.33;;
4585;SDS011;2305;50.118;8.952;2024-01-07T15:02:06;2.07;;;1.30;;
4585;SDS011;2305;50.118;8.952;2024-01-07T15:04:40;2.97;;;1.37;;
4585;SDS011;2305;50.118;8.952;2024-01-07T15:07:09;3.00;;;1.90;;
4585;SDS011;2305;50.118;8.952;2024-01-07T15:09:38;3.00;;;2.00;;
4585;SDS011;2305;50.118;8.952;2024-01-07T15:12:07;1.63;;;1.40;;
4585;SDS011;2305;50.118;8.952;2024-01-07T15:14:35;1.60;;;1.30;;
4585;SDS011;2305;50.118;8.952;2024-01-07T15:17:04;1.70;;;1.40;;
4585;SDS011;2305;50.118;8.952;2024-01-07T15:19:35;2.00;;;1.70;;
4585;SDS011;2305;50.118;8.952;2024-01-07T15:22:07;3.93;;;1.30;;
4585;SDS011;2305;50.118;8.952;2024-01-07T15:24:35;1.47;;;1.30;;
4585;SDS011;2305;50.118;8.952;2024-01-07T15:27:03;2.60;;;1.30;;
4585;SDS011;2305;50.118;8.952;2024-01-07T15:29:35;1.70;;;1.27;;
4585;SDS011;2305;50.118;8.952;2024-01-07T15:32:04;2.47;;;1.30;;